sensor_id;sensor_type;location;lat;lon;timestamp;pressure;altitude;pressure_sealevel;temperature;humidity
30897;BME280;64229;52.246;21.054;2023-10-19T00:00:36;100181.25;;;2.73;100.00
30897;BME280;64229;52.246;21.054;2023-10-19T00:03:05;100181.72;;;2.63;100.00
30897;BME280;64229;52.246;21.054;2023-10-19T00:05:33;100174.78;;;2.69;100.00
30897;BME280;64229;52.246;21.054;2023-10-19T00:07:59;100167.25;;;2.72;100.00
30897;BME280;64229;52.246;21.054;2023-10-19T00:10:27;100159.13;;;2.74;100.00
30897;BME280;64229;52.246;21.054;2023-10-19T00:13:00;100161.16;;;3.15;100.00
30897;BME280;64229;52.246;21.054;2023-10-19T00:15:29;100154.81;;;3.41;99.91
30897;BME280;64229;52.246;21.054;2023-10-19T00:17:57;100149.53;;;3.23;99.10
30897;BME280;64229;52.246;21.054;2023-10-19T00:20:24;100150.22;;;2.93;100.00
30897;BME280;64229;52.246;21.054;2023-10-19T00:22:52;100153.06;;;2.73;100.00
30897;BME280;64229;52.246;21.054;2023-10-19T00:25:18;100145.00;;;2.68;100.00
30897;BME280;64229;52.246;21.054;2023-10-19T00:27:44;100137.19;;;2.55;100.00
30897;BME280;64229;52.246;21.054;2023-10-19T00:30:13;100130.94;;;2.74;100.00
30897;BME280;64229;52.246;21.054;2023-10-19T00:32:44;100137.38;;;2.60;100.00
30897;BME280;64229;52.246;21.054;2023-10-19T00:35:11;100142.34;;;2.43;100.00
30897;BME280;64229;52.246;21.054;2023-10-19T00:37:54;100133.16;;;2.27;100.00
30897;BME280;64229;52.246;21.054;2023-10-19T00:40:21;100138.88;;;2.24;100.00
30897;BME280;64229;52.246;21.054;2023-10-19T00:43:03;100127.78;;;2.16;100.00
30897;BME280;64229;52.246;21.054;2023-10-19T00:45:33;100126.22;;;2.08;100.00
30897;BME280;64229;52.246;21.054;2023-10-19T00:48:06;100130.50;;;2.02;100.00
30897;BME280;64229;52.246;21.054;2023-10-19T00:50:33;100126.09;;;1.96;100.00
30897;BME280;64229;52.246;21.054;2023-10-19T00:52:58;100119.22;;;1.95;100.00
30897;BME280;64229;52.246;21.054;2023-10-19T00:55:24;100125.31;;;1.89;100.00
30897;BME280;64229;52.246;21.054;2023-10-19T00:57:52;100114.38;;;1.92;100.00
30897;BME280;64229;52.246;21.054;2023-10-19T01:00:19;100110.94;;;1.92;100.00
30897;BME280;64229;52.246;21.054;2023-10-19T01:02:57;100112.22;;;1.83;100.00
30897;BME280;64229;52.246;21.054;2023-10-19T01:05:25;100109.97;;;1.80;100.00
30897;BME280;64229;52.246;21.054;2023-10-19T01:07:57;100107.78;;;1.77;100.00
30897;BME280;64229;52.246;21.054;2023-10-19T01:10:23;100091.22;;;1.69;100.00
30897;BME280;64229;52.246;21.054;2023-10-19T01:12:49;100102.50;;;1.77;100.00
30897;BME280;64229;52.246;21.054;2023-10-19T01:15:18;100093.00;;;1.76;100.00
30897;BME280;64229;52.246;21.054;2023-10-19T01:17:54;100096.66;;;1.74;100.00
30897;BME280;64229;52.246;21.054;2023-10-19T01:20:24;100093.25;;;1.67;100.00
30897;BME280;64229;52.246;21.054;2023-10-19T01:25:50;100083.97;;;1.96;100.00
30897;BME280;64229;52.246;21.054;2023-10-19T01:28:32;100083.72;;;2.29;100.00
30897;BME280;64229;52.246;21.054;2023-10-19T01:31:10;100075.75;;;2.11;100.00
30897;BME280;64229;52.246;21.054;2023-10-19T01:33:43;100089.00;;;1.98;100.00
30897;BME280;64229;52.246;21.054;2023-10-19T01:36:09;100076.19;;;1.77;100.00
30897;BME280;64229;52.246;21.054;2023-10-19T01:38:39;100072.78;;;1.69;100.00
30897;BME280;64229;52.246;21.054;2023-10-19T01:41:07;100060.50;;;1.63;100.00
30897;BME280;64229;52.246;21.054;2023-10-19T01:43:42;100064.31;;;1.67;100.00
30897;BME280;64229;52.246;21.054;2023-10-19T01:46:09;100055.16;;;1.77;100.00
30897;BME280;64229;52.246;21.054;2023-10-19T01:48:46;100062.59;;;1.80;100.00
30897;BME280;64229;52.246;21.054;2023-10-19T01:51:11;100058.56;;;1.84;100.00
30897;BME280;64229;52.246;21.054;2023-10-19T01:53:40;100061.78;;;1.86;100.00
30897;BME280;64229;52.246;21.054;2023-10-19T01:56:09;100057.56;;;1.78;100.00
30897;BME280;64229;52.246;21.054;2023-10-19T01:58:36;100058.84;;;1.69;100.00
30897;BME280;64229;52.246;21.054;2023-10-19T02:01:02;100059.69;;;1.63;100.00
30897;BME280;64229;52.246;21.054;2023-10-19T02:03:33;100055.91;;;1.52;100.00
30897;BME280;64229;52.246;21.054;2023-10-19T02:05:58;100053.31;;;1.45;100.00
30897;BME280;64229;52.246;21.054;2023-10-19T02:08:25;100043.66;;;1.33;100.00
30897;BME280;64229;52.246;21.054;2023-10-19T02:10:51;100039.88;;;1.22;100.00
30897;BME280;64229;52.246;21.054;2023-10-19T02:13:17;100056.81;;;1.33;100.00
30897;BME280;64229;52.246;21.054;2023-10-19T02:15:43;100057.84;;;1.32;100.00
30897;BME280;64229;52.246;21.054;2023-10-19T02:18:09;100051.56;;;1.33;100.00
30897;BME280;64229;52.246;21.054;2023-10-19T02:20:36;100050.38;;;1.29;100.00
30897;BME280;64229;52.246;21.054;2023-10-19T02:23:05;100026.56;;;1.17;100.00
30897;BME280;64229;52.246;21.054;2023-10-19T02:25:31;100039.22;;;1.33;100.00
30897;BME280;64229;52.246;21.054;2023-10-19T02:28:01;100047.53;;;1.30;100.00
30897;BME280;64229;52.246;21.054;2023-10-19T02:30:27;100045.72;;;1.24;100.00
30897;BME280;64229;52.246;21.054;2023-10-19T02:32:53;100042.13;;;1.19;100.00
30897;BME280;64229;52.246;21.054;2023-10-19T02:35:18;100039.31;;;1.13;100.00
30897;BME280;64229;52.246;21.054;2023-10-19T02:37:44;100035.28;;;1.11;100.00
30897;BME280;64229;52.246;21.054;2023-10-19T02:40:09;100036.31;;;1.10;100.00
30897;BME280;64229;52.246;21.054;2023-10-19T02:42:47;100030.03;;;1.11;100.00
30897;BME280;64229;52.246;21.054;2023-10-19T02:45:14;100027.03;;;1.07;100.00
30897;BME280;64229;52.246;21.054;2023-10-19T02:47:42;100023.97;;;1.10;100.00
30897;BME280;64229;52.246;21.054;2023-10-19T02:50:08;100014.47;;;1.09;100.00
30897;BME280;64229;52.246;21.054;2023-10-19T02:52:36;100023.53;;;1.13;100.00
30897;BME280;64229;52.246;21.054;2023-10-19T02:55:01;100021.69;;;1.21;100.00
30897;BME280;64229;52.246;21.054;2023-10-19T02:57:29;100027.75;;;1.21;100.00
30897;BME280;64229;52.246;21.054;2023-10-19T02:59:56;100014.63;;;1.14;100.00
30897;BME280;64229;52.246;21.054;2023-10-19T03:02:23;100011.84;;;1.09;100.00
30897;BME280;64229;52.246;21.054;2023-10-19T03:04:51;100010.97;;;1.15;100.00
30897;BME280;64229;52.246;21.054;2023-10-19T03:07:16;99994.38;;;1.22;100.00
30897;BME280;64229;52.246;21.054;2023-10-19T03:09:43;100001.09;;;1.18;100.00
30897;BME280;64229;52.246;21.054;2023-10-19T03:12:19;100002.91;;;1.17;100.00
30897;BME280;64229;52.246;21.054;2023-10-19T03:14:45;99997.69;;;1.10;100.00
30897;BME280;64229;52.246;21.054;2023-10-19T03:17:13;99990.41;;;1.06;100.00
30897;BME280;64229;52.246;21.054;2023-10-19T03:19:38;99972.28;;;0.91;100.00
30897;BME280;64229;52.246;21.054;2023-10-19T03:22:03;99987.81;;;0.99;100.00
30897;BME280;64229;52.246;21.054;2023-10-19T03:24:32;99981.13;;;1.03;100.00
30897;BME280;64229;52.246;21.054;2023-10-19T03:27:09;99983.38;;;1.00;100.00
30897;BME280;64229;52.246;21.054;2023-10-19T03:29:48;99981.75;;;0.99;100.00
30897;BME280;64229;52.246;21.054;2023-10-19T03:32:20;99975.47;;;1.06;100.00
30897;BME280;64229;52.246;21.054;2023-10-19T03:34:47;99976.66;;;1.10;100.00
30897;BME280;64229;52.246;21.054;2023-10-19T03:37:13;99975.84;;;1.10;100.00
30897;BME280;64229;52.246;21.054;2023-10-19T03:39:40;99969.78;;;1.09;100.00
30897;BME280;64229;52.246;21.054;2023-10-19T03:42:06;99964.75;;;1.39;100.00
30897;BME280;64229;52.246;21.054;2023-10-19T03:44:34;99959.06;;;1.42;100.00
30897;BME280;64229;52.246;21.054;2023-10-19T03:47:15;99958.63;;;1.45;100.00
30897;BME280;64229;52.246;21.054;2023-10-19T03:49:47;99958.00;;;1.50;100.00
30897;BME280;64229;52.246;21.054;2023-10-19T03:52:14;99951.88;;;1.56;100.00
30897;BME280;64229;52.246;21.054;2023-10-19T03:54:40;99938.91;;;1.61;100.00
30897;BME280;64229;52.246;21.054;2023-10-19T03:57:10;99928.78;;;1.58;100.00
30897;BME280;64229;52.246;21.054;2023-10-19T03:59:48;99929.78;;;1.64;100.00
30897;BME280;64229;52.246;21.054;2023-10-19T04:02:15;99911.25;;;1.52;100.00
30897;BME280;64229;52.246;21.054;2023-10-19T04:04:44;99919.75;;;1.48;100.00
30897;BME280;64229;52.246;21.054;2023-10-19T04:07:17;99928.56;;;1.35;100.00
30897;BME280;64229;52.246;21.054;2023-10-19T04:09:47;99917.47;;;1.58;100.00
30897;BME280;64229;52.246;21.054;2023-10-19T04:12:26;99919.16;;;1.52;100.00
30897;BME280;64229;52.246;21.054;2023-10-19T04:14:54;99918.75;;;1.49;100.00
30897;BME280;64229;52.246;21.054;2023-10-19T04:17:19;99914.16;;;1.44;100.00
30897;BME280;64229;52.246;21.054;2023-10-19T04:19:49;99888.44;;;1.21;100.00
30897;BME280;64229;52.246;21.054;2023-10-19T04:22:16;99885.63;;;1.16;100.00
30897;BME280;64229;52.246;21.054;2023-10-19T04:24:48;99894.69;;;1.20;100.00
30897;BME280;64229;52.246;21.054;2023-10-19T04:27:13;99896.75;;;1.18;100.00
30897;BME280;64229;52.246;21.054;2023-10-19T04:29:39;99891.09;;;1.14;100.00
30897;BME280;64229;52.246;21.054;2023-10-19T04:32:06;99884.44;;;1.12;100.00
30897;BME280;64229;52.246;21.054;2023-10-19T04:34:32;99876.53;;;1.19;100.00
30897;BME280;64229;52.246;21.054;2023-10-19T04:36:57;99879.16;;;1.19;100.00
30897;BME280;64229;52.246;21.054;2023-10-19T04:39:22;99877.47;;;1.24;100.00
30897;BME280;64229;52.246;21.054;2023-10-19T04:41:49;99875.25;;;1.28;100.00
30897;BME280;64229;52.246;21.054;2023-10-19T04:44:14;99865.34;;;1.23;100.00
30897;BME280;64229;52.246;21.054;2023-10-19T04:46:40;99868.34;;;1.27;100.00
30897;BME280;64229;52.246;21.054;2023-10-19T04:49:06;99869.00;;;1.22;100.00
30897;BME280;64229;52.246;21.054;2023-10-19T04:51:31;99856.28;;;1.19;100.00
30897;BME280;64229;52.246;21.054;2023-10-19T04:53:58;99871.25;;;1.19;100.00
30897;BME280;64229;52.246;21.054;2023-10-19T04:56:23;99855.72;;;1.17;100.00
30897;BME280;64229;52.246;21.054;2023-10-19T04:58:49;99853.47;;;1.14;100.00
30897;BME280;64229;52.246;21.054;2023-10-19T05:01:14;99858.13;;;1.19;100.00
30897;BME280;64229;52.246;21.054;2023-10-19T05:03:40;99868.56;;;1.25;100.00
30897;BME280;64229;52.246;21.054;2023-10-19T05:06:05;99866.97;;;1.24;100.00
30897;BME280;64229;52.246;21.054;2023-10-19T05:08:30;99866.00;;;1.19;100.00
30897;BME280;64229;52.246;21.054;2023-10-19T05:10:57;99865.78;;;1.20;100.00
30897;BME280;64229;52.246;21.054;2023-10-19T05:13:24;99864.53;;;1.23;100.00
30897;BME280;64229;52.246;21.054;2023-10-19T05:15:51;99857.69;;;1.22;100.00
30897;BME280;64229;52.246;21.054;2023-10-19T05:18:18;99866.00;;;1.19;100.00
30897;BME280;64229;52.246;21.054;2023-10-19T05:20:43;99865.78;;;1.20;100.00
30897;BME280;64229;52.246;21.054;2023-10-19T05:23:08;99861.47;;;1.26;100.00
30897;BME280;64229;52.246;21.054;2023-10-19T05:25:35;99857.22;;;1.31;100.00
30897;BME280;64229;52.246;21.054;2023-10-19T05:28:03;99846.31;;;1.28;100.00
30897;BME280;64229;52.246;21.054;2023-10-19T05:30:28;99867.06;;;1.36;100.00
30897;BME280;64229;52.246;21.054;2023-10-19T05:32:55;99865.41;;;1.41;100.00
30897;BME280;64229;52.246;21.054;2023-10-19T05:35:20;99849.53;;;1.30;100.00
30897;BME280;64229;52.246;21.054;2023-10-19T05:37:49;99854.31;;;1.39;100.00
30897;BME280;64229;52.246;21.054;2023-10-19T05:40:15;99858.91;;;1.44;100.00
30897;BME280;64229;52.246;21.054;2023-10-19T05:42:41;99859.09;;;1.49;100.00
30897;BME280;64229;52.246;21.054;2023-10-19T05:45:06;99857.63;;;1.53;100.00
30897;BME280;64229;52.246;21.054;2023-10-19T05:47:32;99854.41;;;1.51;100.00
30897;BME280;64229;52.246;21.054;2023-10-19T05:49:57;99851.94;;;1.56;100.00
30897;BME280;64229;52.246;21.054;2023-10-19T05:52:22;99861.75;;;1.67;100.00
30897;BME280;64229;52.246;21.054;2023-10-19T05:54:47;99859.28;;;1.72;100.00
30897;BME280;64229;52.246;21.054;2023-10-19T05:57:14;99861.69;;;1.74;100.00
30897;BME280;64229;52.246;21.054;2023-10-19T05:59:40;99853.22;;;1.90;100.00
30897;BME280;64229;52.246;21.054;2023-10-19T06:02:06;99846.91;;;1.91;100.00
30897;BME280;64229;52.246;21.054;2023-10-19T06:04:33;99856.59;;;1.97;100.00
30897;BME280;64229;52.246;21.054;2023-10-19T06:06:58;99846.56;;;2.06;100.00
30897;BME280;64229;52.246;21.054;2023-10-19T06:09:23;99843.44;;;2.16;100.00
30897;BME280;64229;52.246;21.054;2023-10-19T06:11:55;99843.13;;;2.24;100.00
30897;BME280;64229;52.246;21.054;2023-10-19T06:14:20;99841.09;;;2.26;100.00
30897;BME280;64229;52.246;21.054;2023-10-19T06:16:45;99837.66;;;2.25;100.00
30897;BME280;64229;52.246;21.054;2023-10-19T06:19:10;99844.66;;;2.31;100.00
30897;BME280;64229;52.246;21.054;2023-10-19T06:21:36;99846.41;;;2.38;100.00
30897;BME280;64229;52.246;21.054;2023-10-19T06:24:02;99854.31;;;2.38;100.00
30897;BME280;64229;52.246;21.054;2023-10-19T06:26:28;99852.97;;;2.47;100.00
30897;BME280;64229;52.246;21.054;2023-10-19T06:28:54;99839.28;;;2.56;100.00
30897;BME280;64229;52.246;21.054;2023-10-19T06:31:24;99832.88;;;2.64;100.00
30897;BME280;64229;52.246;21.054;2023-10-19T06:33:50;99846.56;;;2.73;100.00
30897;BME280;64229;52.246;21.054;2023-10-19T06:36:16;99844.38;;;2.70;100.00
30897;BME280;64229;52.246;21.054;2023-10-19T06:38:41;99838.88;;;2.71;100.00
30897;BME280;64229;52.246;21.054;2023-10-19T06:41:11;99840.28;;;2.85;100.00
30897;BME280;64229;52.246;21.054;2023-10-19T06:43:38;99842.28;;;3.02;100.00
30897;BME280;64229;52.246;21.054;2023-10-19T06:46:04;99835.72;;;2.93;100.00
30897;BME280;64229;52.246;21.054;2023-10-19T06:48:29;99835.19;;;3.14;100.00
30897;BME280;64229;52.246;21.054;2023-10-19T06:50:56;99836.78;;;3.03;98.89
30897;BME280;64229;52.246;21.054;2023-10-19T06:53:21;99836.50;;;2.81;99.54
30897;BME280;64229;52.246;21.054;2023-10-19T06:55:47;99832.91;;;2.76;100.00
30897;BME280;64229;52.246;21.054;2023-10-19T06:58:13;99823.59;;;3.03;98.96
30897;BME280;64229;52.246;21.054;2023-10-19T07:00:40;99828.53;;;3.00;98.43
30897;BME280;64229;52.246;21.054;2023-10-19T07:03:09;99815.78;;;2.97;98.89
30897;BME280;64229;52.246;21.054;2023-10-19T07:05:34;99806.63;;;2.87;99.21
30897;BME280;64229;52.246;21.054;2023-10-19T07:08:00;99810.31;;;2.98;99.43
30897;BME280;64229;52.246;21.054;2023-10-19T07:10:27;99802.84;;;3.07;99.81
30897;BME280;64229;52.246;21.054;2023-10-19T07:12:54;99809.63;;;3.26;99.95
30897;BME280;64229;52.246;21.054;2023-10-19T07:15:21;99809.31;;;3.46;99.49
30897;BME280;64229;52.246;21.054;2023-10-19T07:17:50;99807.94;;;3.67;98.52
30897;BME280;64229;52.246;21.054;2023-10-19T07:20:20;99800.56;;;3.81;97.73
30897;BME280;64229;52.246;21.054;2023-10-19T07:23:00;99792.63;;;3.92;96.86
30897;BME280;64229;52.246;21.054;2023-10-19T07:25:28;99804.53;;;4.06;95.43
30897;BME280;64229;52.246;21.054;2023-10-19T07:27:54;99802.19;;;4.22;94.51
30897;BME280;64229;52.246;21.054;2023-10-19T07:30:20;99801.38;;;4.21;93.56
30897;BME280;64229;52.246;21.054;2023-10-19T07:32:50;99798.84;;;4.26;93.46
30897;BME280;64229;52.246;21.054;2023-10-19T07:35:21;99787.41;;;4.49;92.93
30897;BME280;64229;52.246;21.054;2023-10-19T07:37:51;99776.13;;;4.87;91.51
30897;BME280;64229;52.246;21.054;2023-10-19T07:40:16;99764.75;;;4.87;91.44
30897;BME280;64229;52.246;21.054;2023-10-19T07:42:42;99762.22;;;4.92;91.50
30897;BME280;64229;52.246;21.054;2023-10-19T07:45:08;99762.13;;;5.04;91.35
30897;BME280;64229;52.246;21.054;2023-10-19T07:47:37;99767.09;;;5.17;90.62
30897;BME280;64229;52.246;21.054;2023-10-19T07:50:06;99761.41;;;5.25;90.87
30897;BME280;64229;52.246;21.054;2023-10-19T07:52:37;99762.09;;;5.37;90.63
30897;BME280;64229;52.246;21.054;2023-10-19T07:55:04;99750.97;;;5.35;90.38
30897;BME280;64229;52.246;21.054;2023-10-19T07:57:30;99751.16;;;5.50;90.39
30897;BME280;64229;52.246;21.054;2023-10-19T07:59:55;99747.19;;;5.70;90.42
30897;BME280;64229;52.246;21.054;2023-10-19T08:02:21;99744.97;;;5.84;89.86
30897;BME280;64229;52.246;21.054;2023-10-19T08:04:50;99748.38;;;6.01;89.10
30897;BME280;64229;52.246;21.054;2023-10-19T08:07:15;99729.41;;;6.09;88.21
30897;BME280;64229;52.246;21.054;2023-10-19T08:09:42;99731.97;;;6.26;88.21
30897;BME280;64229;52.246;21.054;2023-10-19T08:12:07;99737.06;;;6.32;86.86
30897;BME280;64229;52.246;21.054;2023-10-19T08:14:34;99736.03;;;6.60;85.35
30897;BME280;64229;52.246;21.054;2023-10-19T08:17:00;99736.34;;;6.69;84.93
30897;BME280;64229;52.246;21.054;2023-10-19T08:19:27;99739.31;;;6.73;84.72
30897;BME280;64229;52.246;21.054;2023-10-19T08:21:53;99725.31;;;6.82;84.83
30897;BME280;64229;52.246;21.054;2023-10-19T08:24:18;99730.22;;;7.01;84.53
30897;BME280;64229;52.246;21.054;2023-10-19T08:26:46;99725.00;;;7.11;83.32
30897;BME280;64229;52.246;21.054;2023-10-19T08:29:12;99718.94;;;7.15;83.13
30897;BME280;64229;52.246;21.054;2023-10-19T08:31:39;99711.78;;;7.21;82.77
30897;BME280;64229;52.246;21.054;2023-10-19T08:34:05;99710.97;;;7.20;82.83
30897;BME280;64229;52.246;21.054;2023-10-19T08:36:30;99704.41;;;7.33;82.33
30897;BME280;64229;52.246;21.054;2023-10-19T08:38:56;99693.38;;;7.51;82.39
30897;BME280;64229;52.246;21.054;2023-10-19T08:41:22;99693.69;;;7.65;82.47
30897;BME280;64229;52.246;21.054;2023-10-19T08:43:48;99687.13;;;7.78;81.54
30897;BME280;64229;52.246;21.054;2023-10-19T08:46:14;99686.13;;;8.04;80.50
30897;BME280;64229;52.246;21.054;2023-10-19T08:48:39;99681.63;;;8.10;80.39
30897;BME280;64229;52.246;21.054;2023-10-19T08:51:10;99683.53;;;8.30;79.03
30897;BME280;64229;52.246;21.054;2023-10-19T08:53:37;99673.94;;;8.24;78.28
30897;BME280;64229;52.246;21.054;2023-10-19T08:56:06;99670.22;;;8.30;77.75
30897;BME280;64229;52.246;21.054;2023-10-19T08:58:32;99665.72;;;8.30;77.10
30897;BME280;64229;52.246;21.054;2023-10-19T09:00:57;99656.94;;;8.30;77.13
30897;BME280;64229;52.246;21.054;2023-10-19T09:03:31;99670.28;;;8.40;77.66
30897;BME280;64229;52.246;21.054;2023-10-19T09:05:57;99666.25;;;8.48;77.74
30897;BME280;64229;52.246;21.054;2023-10-19T09:08:22;99654.03;;;8.67;76.01
30897;BME280;64229;52.246;21.054;2023-10-19T09:10:48;99653.50;;;8.85;75.14
30897;BME280;64229;52.246;21.054;2023-10-19T09:13:14;99656.16;;;8.85;75.28
30897;BME280;64229;52.246;21.054;2023-10-19T09:15:43;99651.88;;;8.94;74.96
30897;BME280;64229;52.246;21.054;2023-10-19T09:18:12;99661.19;;;8.92;75.33
30897;BME280;64229;52.246;21.054;2023-10-19T09:20:39;99643.91;;;8.94;74.60
30897;BME280;64229;52.246;21.054;2023-10-19T09:23:06;99648.06;;;9.21;73.28
30897;BME280;64229;52.246;21.054;2023-10-19T09:25:32;99633.97;;;9.20;73.21
30897;BME280;64229;52.246;21.054;2023-10-19T09:27:58;99621.47;;;9.16;73.88
30897;BME280;64229;52.246;21.054;2023-10-19T09:30:23;99624.38;;;9.19;74.05
30897;BME280;64229;52.246;21.054;2023-10-19T09:32:51;99619.56;;;9.26;73.90
30897;BME280;64229;52.246;21.054;2023-10-19T09:35:19;99580.47;;;9.12;72.82
30897;BME280;64229;52.246;21.054;2023-10-19T09:37:44;99610.44;;;9.48;71.70
30897;BME280;64229;52.246;21.054;2023-10-19T09:40:10;99596.06;;;9.44;71.82
30897;BME280;64229;52.246;21.054;2023-10-19T09:42:47;99596.56;;;9.51;70.65
30897;BME280;64229;52.246;21.054;2023-10-19T09:45:19;99588.34;;;9.47;71.26
30897;BME280;64229;52.246;21.054;2023-10-19T09:47:50;99582.94;;;9.57;70.40
30897;BME280;64229;52.246;21.054;2023-10-19T09:50:16;99579.97;;;9.64;70.40
30897;BME280;64229;52.246;21.054;2023-10-19T09:52:41;99569.88;;;9.61;69.89
30897;BME280;64229;52.246;21.054;2023-10-19T09:55:14;99553.09;;;9.61;68.68
30897;BME280;64229;52.246;21.054;2023-10-19T09:57:53;99551.72;;;9.63;69.36
30897;BME280;64229;52.246;21.054;2023-10-19T10:00:20;99538.72;;;9.56;67.79
30897;BME280;64229;52.246;21.054;2023-10-19T10:02:49;99542.38;;;9.66;67.13
30897;BME280;64229;52.246;21.054;2023-10-19T10:10:50;99555.91;;;9.74;66.16
30897;BME280;64229;52.246;21.054;2023-10-19T10:15:52;99530.66;;;9.67;66.63
30897;BME280;64229;52.246;21.054;2023-10-19T10:18:18;99521.34;;;9.64;67.05
30897;BME280;64229;52.246;21.054;2023-10-19T10:20:44;99506.41;;;9.68;66.20
30897;BME280;64229;52.246;21.054;2023-10-19T10:23:17;99507.88;;;9.84;65.46
30897;BME280;64229;52.246;21.054;2023-10-19T10:25:45;99515.13;;;9.79;66.25
30897;BME280;64229;52.246;21.054;2023-10-19T10:28:14;99511.69;;;9.78;66.64
30897;BME280;64229;52.246;21.054;2023-10-19T10:31:33;99502.97;;;9.68;66.90
30897;BME280;64229;52.246;21.054;2023-10-19T10:33:52;99498.94;;;9.70;67.03
30897;BME280;64229;52.246;21.054;2023-10-19T10:36:20;99495.44;;;9.75;66.74
30897;BME280;64229;52.246;21.054;2023-10-19T10:38:52;99492.75;;;9.75;67.45
30897;BME280;64229;52.246;21.054;2023-10-19T10:41:22;99488.94;;;9.86;67.57
30897;BME280;64229;52.246;21.054;2023-10-19T10:43:52;99481.91;;;10.00;67.09
30897;BME280;64229;52.246;21.054;2023-10-19T10:46:19;99486.34;;;10.10;66.99
30897;BME280;64229;52.246;21.054;2023-10-19T10:48:45;99483.06;;;10.23;65.24
30897;BME280;64229;52.246;21.054;2023-10-19T10:51:18;99483.84;;;10.19;65.56
30897;BME280;64229;52.246;21.054;2023-10-19T10:53:46;99476.06;;;10.27;65.54
30897;BME280;64229;52.246;21.054;2023-10-19T10:56:12;99467.63;;;10.15;65.79
30897;BME280;64229;52.246;21.054;2023-10-19T10:58:37;99466.06;;;10.09;65.98
30897;BME280;64229;52.246;21.054;2023-10-19T11:01:02;99455.97;;;10.06;65.74
30897;BME280;64229;52.246;21.054;2023-10-19T11:03:28;99445.81;;;10.08;66.44
30897;BME280;64229;52.246;21.054;2023-10-19T11:05:55;99438.09;;;10.11;66.44
30897;BME280;64229;52.246;21.054;2023-10-19T11:08:23;99443.13;;;10.13;66.30
30897;BME280;64229;52.246;21.054;2023-10-19T11:10:49;99436.22;;;10.12;66.33
30897;BME280;64229;52.246;21.054;2023-10-19T11:13:16;99433.00;;;10.39;64.90
30897;BME280;64229;52.246;21.054;2023-10-19T11:15:53;99427.97;;;10.37;65.09
30897;BME280;64229;52.246;21.054;2023-10-19T11:18:29;99414.72;;;10.27;65.39
30897;BME280;64229;52.246;21.054;2023-10-19T11:20:55;99415.81;;;10.26;65.87
30897;BME280;64229;52.246;21.054;2023-10-19T11:23:36;99410.38;;;10.36;65.00
30897;BME280;64229;52.246;21.054;2023-10-19T11:26:02;99414.03;;;10.40;64.72
30897;BME280;64229;52.246;21.054;2023-10-19T11:28:34;99407.34;;;10.67;63.33
30897;BME280;64229;52.246;21.054;2023-10-19T11:31:19;99399.66;;;10.60;63.85
30897;BME280;64229;52.246;21.054;2023-10-19T11:33:46;99398.16;;;10.54;64.10
30897;BME280;64229;52.246;21.054;2023-10-19T11:36:13;99398.28;;;10.44;64.30
30897;BME280;64229;52.246;21.054;2023-10-19T11:38:42;99393.50;;;10.41;64.14
30897;BME280;64229;52.246;21.054;2023-10-19T11:41:08;99388.41;;;10.45;64.25
30897;BME280;64229;52.246;21.054;2023-10-19T11:43:35;99378.94;;;10.33;64.79
30897;BME280;64229;52.246;21.054;2023-10-19T11:46:01;99388.97;;;10.41;65.02
30897;BME280;64229;52.246;21.054;2023-10-19T11:48:27;99386.28;;;10.41;65.33
30897;BME280;64229;52.246;21.054;2023-10-19T11:50:52;99379.78;;;10.53;64.65
30897;BME280;64229;52.246;21.054;2023-10-19T11:53:18;99381.91;;;10.75;63.71
30897;BME280;64229;52.246;21.054;2023-10-19T11:55:43;99370.69;;;10.54;63.75
30897;BME280;64229;52.246;21.054;2023-10-19T11:58:09;99371.25;;;10.51;63.56
30897;BME280;64229;52.246;21.054;2023-10-19T12:00:39;99366.56;;;10.42;64.16
30897;BME280;64229;52.246;21.054;2023-10-19T12:03:04;99368.81;;;10.30;64.63
30897;BME280;64229;52.246;21.054;2023-10-19T12:05:31;99375.34;;;10.43;64.91
30897;BME280;64229;52.246;21.054;2023-10-19T12:07:56;99391.69;;;10.36;64.92
30897;BME280;64229;52.246;21.054;2023-10-19T12:10:22;99384.94;;;10.44;64.64
30897;BME280;64229;52.246;21.054;2023-10-19T12:12:54;99386.38;;;10.36;64.78
30897;BME280;64229;52.246;21.054;2023-10-19T12:15:22;99381.91;;;10.51;64.36
30897;BME280;64229;52.246;21.054;2023-10-19T12:17:48;99383.63;;;10.41;65.13
30897;BME280;64229;52.246;21.054;2023-10-19T12:20:14;99372.63;;;10.48;65.01
30897;BME280;64229;52.246;21.054;2023-10-19T12:22:40;99372.50;;;10.58;64.44
30897;BME280;64229;52.246;21.054;2023-10-19T12:25:06;99371.44;;;10.78;63.41
30897;BME280;64229;52.246;21.054;2023-10-19T12:27:32;99372.06;;;10.70;64.00
30897;BME280;64229;52.246;21.054;2023-10-19T12:29:57;99375.31;;;10.67;63.95
30897;BME280;64229;52.246;21.054;2023-10-19T12:32:24;99365.47;;;10.43;64.90
30897;BME280;64229;52.246;21.054;2023-10-19T12:34:51;99368.78;;;10.35;65.62
30897;BME280;64229;52.246;21.054;2023-10-19T12:37:21;99358.16;;;10.30;66.15
30897;BME280;64229;52.246;21.054;2023-10-19T12:39:46;99357.66;;;10.28;66.35
30897;BME280;64229;52.246;21.054;2023-10-19T12:42:15;99348.84;;;10.28;66.26
30897;BME280;64229;52.246;21.054;2023-10-19T12:44:41;99346.47;;;10.26;66.10
30897;BME280;64229;52.246;21.054;2023-10-19T12:47:10;99349.94;;;10.27;65.72
30897;BME280;64229;52.246;21.054;2023-10-19T12:49:38;99335.19;;;10.34;65.47
30897;BME280;64229;52.246;21.054;2023-10-19T12:52:04;99335.69;;;10.36;65.38
30897;BME280;64229;52.246;21.054;2023-10-19T12:54:29;99331.22;;;10.32;66.10
30897;BME280;64229;52.246;21.054;2023-10-19T12:56:55;99323.63;;;10.39;65.67
30897;BME280;64229;52.246;21.054;2023-10-19T12:59:20;99323.31;;;10.46;65.19
30897;BME280;64229;52.246;21.054;2023-10-19T13:01:45;99323.31;;;10.46;65.48
30897;BME280;64229;52.246;21.054;2023-10-19T13:04:14;99317.88;;;10.32;65.76